Hauptseite
METAR-TAF:

METAR-TAF

Flughäfen :

Flughafen Leipzig/Halle

Leipzig, Deutschland

Breite: 51-25N, Länge: 012-14E, Höhe: 144 m

Beobachtung

Neuester Wetterbericht von vor 34 Minuten, um 01:20 UTC
Wind 7 kt aus Nordost
Temperatur 16°C
Luftfeuchtigkeit 68%
Luftdruck 1012 hPa
Sichtweite 10 km oder mehr
keine Wolken unter 1500 m und keine Kumulonimbus oder Gewitterwolken

METAR: EDDP 210120Z 05007KT CAVOK 16/10 Q1012 NOSIG

Zeit: 03:54 (01:54 UTC)

Prognose

Neuester Wetterbericht von vor 2 Stunden und 54 Minuten, um 23:00 UTC
Gültige Prognose vom 21 um 00 UTC bis 21 um 24 UTC
Wind 5 kt aus Ost
Sichtweite 10 km oder mehr
keine Wolken unter 1500 m und keine Kumulonimbus oder Gewitterwolken
Übergehend zu
vom 21 um 07 UTC bis 21 um 10 UTC
Wind 10 kt aus Ost/Nordost

TAF: EDDP 202300Z 2100/2124 08005KT CAVOK BECMG 2107/2110 07010KT

Wetterbeobachtungen und Prognosen von mehr als 4000 Flughäfen (METAR und TAF Bericht).

Die verfügbaren Stationen werden durch gelbe und rote Markierungen auf der Karte dargestellt.

Führen Sie die Maus auf sie, um den Namen der Station zu sehen.

Darauf klicken, um die Beobachtung von Wetterbeobachtungen und Prognosen zu sehen.

Um die Karte zu ändern : klicken Sie auf den grünen Tasten mit einem schwarzen Kreuz Zum Vergrößern, auf den grünen Button mit einem Gedankenstrich zu verkleinern, oder auf die grünen Pfeile für benachbarte Karten.


METAR-TAF: